Time;durP1;ratioP1;P1;durP2;ratioP2;P2;SDS_P1;SDS_P2;PMS_P1;PMS_P2;Temp;Humidity;BMP_temperature;BMP_pressure;BME280_temperature;BME280_humidity;BME280_pressure;Samples;Min_cycle;Max_cycle;Signal;HPM_P1;HPM_P2
2022/02/08 00:00:59;;;;;;;7.85;3.20;;;;;;;1.75;80.30;101775.63;5029557;28;20021;-22
2022/02/08 00:03:25;;;;;;;10.07;2.95;;;;;;;1.72;80.28;101779.00;5027552;28;20472;-21
2022/02/08 00:06:37;;;;;;;7.97;3.40;;;;;;;1.70;80.13;101782.34;5024557;28;20120;-21
2022/02/08 00:08:42;;;;;;;8.52;3.10;;;;;;;1.67;80.19;101780.50;5023096;28;20412;-22
2022/02/08 00:11:09;;;;;;;4.53;2.97;;;;;;;1.65;80.41;101774.34;5026225;28;20992;-21
2022/02/08 00:13:34;;;;;;;11.00;3.30;;;;;;;1.66;80.28;101778.69;5028223;28;20497;-22
2022/02/08 00:16:00;;;;;;;8.25;3.50;;;;;;;1.63;80.36;101774.25;5028003;28;20083;-21
2022/02/08 00:18:25;;;;;;;8.98;4.30;;;;;;;1.58;80.49;101772.28;5027918;28;20556;-21
2022/02/08 00:20:51;;;;;;;8.30;3.00;;;;;;;1.58;80.27;101775.78;5027658;28;20071;-21
2022/02/08 00:23:16;;;;;;;6.82;3.72;;;;;;;1.58;80.59;101783.56;5028983;28;20029;-21
2022/02/08 00:25:42;;;;;;;6.97;3.35;;;;;;;1.57;80.18;101786.97;5029808;28;20033;-23
2022/02/08 00:28:07;;;;;;;11.10;4.22;;;;;;;1.57;80.42;101786.97;5027900;28;20037;-21
2022/02/08 00:30:33;;;;;;;5.22;3.63;;;;;;;1.55;80.57;101796.44;5028992;28;20476;-25
2022/02/08 00:32:58;;;;;;;11.00;3.88;;;;;;;1.53;80.06;101795.44;5027527;28;20029;-21
2022/02/08 00:35:24;;;;;;;6.32;3.95;;;;;;;1.53;80.43;101798.06;5027544;28;20478;-25
2022/02/08 00:37:49;;;;;;;8.48;4.18;;;;;;;1.52;80.24;101804.97;5025611;28;20033;-21
2022/02/08 00:40:15;;;;;;;7.00;3.60;;;;;;;1.51;80.38;101799.72;5028236;28;20029;-21
2022/02/08 00:42:41;;;;;;;8.35;3.58;;;;;;;1.50;80.20;101795.34;5027767;28;20079;-23
2022/02/08 00:45:23;;;;;;;6.95;3.58;;;;;;;1.47;80.08;101787.38;5027598;28;20029;-21
2022/02/08 00:47:56;;;;;;;11.43;3.40;;;;;;;1.49;80.01;101801.34;5027637;28;20022;-21
2022/02/08 00:50:21;;;;;;;4.57;3.75;;;;;;;1.47;79.95;101790.00;5027478;28;20690;-21
2022/02/08 00:52:47;;;;;;;5.78;3.58;;;;;;;1.40;80.40;101779.28;5027880;28;20034;-21
2022/02/08 00:55:13;;;;;;;5.80;3.72;;;;;;;1.45;80.43;101796.81;5031261;28;20029;-21
2022/02/08 00:57:38;;;;;;;8.70;3.75;;;;;;;1.43;80.05;101790.66;5026673;28;20056;-21
2022/02/08 01:00:07;;;;;;;7.32;3.70;;;;;;;1.42;80.09;101797.56;5028235;28;20108;-21
2022/02/08 01:02:33;;;;;;;8.23;3.55;;;;;;;1.41;79.96;101804.47;5026234;28;20481;-22
2022/02/08 01:05:01;;;;;;;10.82;4.50;;;;;;;1.39;80.01;101798.31;5026909;28;20048;-21
2022/02/08 01:07:27;;;;;;;7.60;4.03;;;;;;;1.39;79.92;101798.31;5028051;28;20047;-21
2022/02/08 01:09:58;;;;;;;9.20;4.07;;;;;;;1.37;79.85;101784.34;5028368;28;20117;-21
2022/02/08 01:12:24;;;;;;;7.10;4.23;;;;;;;1.36;79.97;101782.56;5028757;28;20032;-21
2022/02/08 01:14:52;;;;;;;12.25;3.75;;;;;;;1.33;80.17;101779.81;5028406;28;20831;-22
2022/02/08 01:17:21;;;;;;;8.35;5.22;;;;;;;1.33;79.97;101782.41;5028800;28;20037;-21
2022/02/08 01:19:52;;;;;;;6.45;4.30;;;;;;;1.32;80.20;101783.25;5027892;28;20047;-21
2022/02/08 01:22:17;;;;;;;8.85;4.40;;;;;;;1.31;79.77;101784.06;5028487;28;20029;-21
2022/02/08 01:24:45;;;;;;;10.48;4.97;;;;;;;1.30;80.35;101781.41;5026892;28;20033;-23
2022/02/08 01:27:12;;;;;;;9.82;4.20;;;;;;;1.28;80.40;101777.03;5025624;28;20025;-23
2022/02/08 01:40:20;;;;;;;8.15;5.47;;;;;;;1.24;80.17;101772.47;5026938;28;20021;-21
2022/02/08 01:48:13;;;;;;;8.88;5.97;;;;;;;1.23;81.00;101768.09;5028109;28;20025;-21
2022/02/08 01:50:39;;;;;;;13.55;6.80;;;;;;;1.24;80.99;101753.41;5025926;28;20022;-21
2022/02/08 01:53:05;;;;;;;8.75;6.20;;;;;;;1.22;81.09;101752.44;5024828;28;20362;-22
2022/02/08 01:55:32;;;;;;;8.80;6.68;;;;;;;1.22;81.01;101748.13;5025466;28;20030;-24
2022/02/08 01:57:58;;;;;;;13.10;7.28;;;;;;;1.25;81.51;101747.38;5025435;28;20109;-21
2022/02/08 02:00:24;;;;;;;14.25;7.97;;;;;;;1.26;81.04;101754.34;5024707;28;20030;-21
2022/02/08 02:02:50;;;;;;;12.55;7.38;;;;;;;1.28;81.65;101742.34;5029915;28;20147;-21
2022/02/08 02:05:15;;;;;;;10.85;7.55;;;;;;;1.31;82.18;101749.38;5034913;28;20029;-22
2022/02/08 02:07:47;;;;;;;15.20;7.93;;;;;;;1.31;81.56;101750.28;5031548;28;20029;-21
2022/02/08 02:10:14;;;;;;;11.00;7.43;;;;;;;1.34;81.30;101752.13;5032324;28;20064;-22
2022/02/08 02:13:01;;;;;;;15.50;8.18;;;;;;;1.35;81.44;101749.59;5030072;28;20088;-21
2022/02/08 02:15:28;;;;;;;12.68;7.25;;;;;;;1.38;81.44;101760.16;5031037;28;20080;-22
2022/02/08 02:17:54;;;;;;;12.40;8.68;;;;;;;1.37;81.61;101758.34;5031160;28;20041;-21
2022/02/08 02:20:21;;;;;;;14.43;8.55;;;;;;;1.43;81.91;101762.06;5031141;28;20079;-21
2022/02/08 02:22:46;;;;;;;20.25;8.75;;;;;;;1.45;81.19;101760.41;5030856;28;20558;-21
2022/02/08 02:25:26;;;;;;;12.55;7.63;;;;;;;1.44;81.84;101749.16;5029626;28;20037;-22
2022/02/08 02:27:55;;;;;;;24.08;8.80;;;;;;;1.48;82.11;101750.16;5029211;28;20448;-21
2022/02/08 02:30:22;;;;;;;13.90;8.00;;;;;;;1.50;82.08;101748.53;5030077;28;20115;-21
2022/02/08 02:32:48;;;;;;;17.55;7.80;;;;;;;1.53;81.72;101748.66;5028998;28;20470;-22
2022/02/08 02:35:13;;;;;;;10.82;7.43;;;;;;;1.52;81.75;101741.69;5031737;28;20063;-21
2022/02/08 02:37:39;;;;;;;15.57;7.65;;;;;;;1.58;81.90;101754.06;5030148;28;20030;-21
2022/02/08 02:40:05;;;;;;;11.98;7.45;;;;;;;1.54;81.67;101743.50;5029907;28;20053;-22
2022/02/08 02:42:31;;;;;;;12.60;7.90;;;;;;;1.62;81.61;101745.59;5029776;28;20110;-21
2022/02/08 02:44:57;;;;;;;12.18;7.75;;;;;;;1.62;81.82;101746.47;5030419;28;20053;-21
2022/02/08 02:47:24;;;;;;;16.42;7.38;;;;;;;1.65;82.01;101743.13;5031153;28;20111;-22
2022/02/08 02:49:50;;;;;;;11.10;7.35;;;;;;;1.65;82.08;101733.63;5030863;28;20029;-21
2022/02/08 02:52:15;;;;;;;14.93;7.13;;;;;;;1.69;82.04;101737.22;5030351;28;20033;-21
2022/02/08 02:54:41;;;;;;;10.38;6.88;;;;;;;1.71;82.04;101732.09;5030097;28;20037;-21
2022/02/08 02:57:07;;;;;;;12.98;6.88;;;;;;;1.71;81.97;101733.00;5030753;28;20389;-21
2022/02/08 02:59:35;;;;;;;10.30;6.63;;;;;;;1.75;81.90;101724.50;5029585;28;20028;-21
2022/02/08 03:04:44;;;;;;;17.17;6.85;;;;;;;1.76;81.85;101721.09;5029563;28;20049;-22
2022/02/08 03:20:47;;;;;;;12.27;6.57;;;;;;;1.89;81.72;101717.31;5028611;28;20025;-21
2022/02/08 03:23:14;;;;;;;15.88;6.28;;;;;;;1.92;81.81;101727.84;5026572;28;20029;-22
2022/02/08 03:25:40;;;;;;;9.90;7.15;;;;;;;1.89;82.00;101722.50;5029600;28;20029;-22
2022/02/08 03:28:05;;;;;;;13.13;7.13;;;;;;;1.95;81.87;101718.38;5029278;28;20425;-21
2022/02/08 03:30:31;;;;;;;11.30;7.20;;;;;;;1.95;81.89;101715.78;5026927;28;20064;-21
2022/02/08 03:32:56;;;;;;;16.23;7.60;;;;;;;1.99;81.87;101709.88;5027298;28;20409;-21
2022/02/08 03:35:22;;;;;;;16.13;7.82;;;;;;;1.99;81.82;101707.28;5029761;28;20112;-24
2022/02/08 03:38:27;;;;;;;11.77;6.97;;;;;;;2.01;81.61;101700.44;5028090;28;20071;-21
2022/02/08 03:40:44;;;;;;;14.57;7.07;;;;;;;2.02;81.95;101697.91;5020720;28;20179;-21
2022/02/08 03:45:53;;;;;;;11.65;6.80;;;;;;;2.07;82.15;101700.72;5026212;28;20439;-21
2022/02/08 03:48:22;;;;;;;13.13;7.75;;;;;;;2.09;81.96;101693.84;5011872;28;20077;-21
2022/02/08 03:50:55;;;;;;;11.85;6.72;;;;;;;2.05;82.05;101689.34;5026566;28;20030;-21
2022/02/08 03:53:22;;;;;;;11.70;6.38;;;;;;;2.13;82.08;101695.75;5026460;28;20274;-22
2022/02/08 03:55:48;;;;;;;11.82;6.80;;;;;;;2.14;81.62;101700.13;5026778;28;20029;-21
2022/02/08 03:58:14;;;;;;;9.32;6.10;;;;;;;2.16;82.03;101701.09;5025531;28;20013;-21
2022/02/08 04:00:56;;;;;;;11.95;7.07;;;;;;;2.16;82.32;101695.88;5022479;28;20485;-22
2022/02/08 04:03:25;;;;;;;11.70;6.18;;;;;;;2.21;82.28;101697.78;5027911;28;20108;-21
2022/02/08 04:05:53;;;;;;;11.93;6.00;;;;;;;2.20;81.96;101698.63;5028492;28;20052;-22
2022/02/08 04:08:19;;;;;;;12.77;7.18;;;;;;;2.24;82.26;101698.81;5027824;28;20485;-21
2022/02/08 04:10:45;;;;;;;10.68;6.07;;;;;;;2.26;81.68;101704.06;5024800;28;20033;-21
2022/02/08 04:13:22;;;;;;;11.38;5.85;;;;;;;2.28;82.04;101692.91;5012297;28;20099;-21
2022/02/08 04:34:56;;;;;;;6.70;5.00;;;;;;;2.43;82.34;101676.13;5024823;28;20032;-21
2022/02/08 04:45:47;;;;;;;7.25;4.78;;;;;;;2.51;82.00;101666.94;5027948;28;20557;-21
2022/02/08 04:48:57;;;;;;;11.57;4.78;;;;;;;2.50;81.72;101669.47;5028496;28;20021;-21
2022/02/08 04:51:12;;;;;;;11.18;5.32;;;;;;;2.54;81.74;101671.38;5025364;28;20025;-21
2022/02/08 04:53:44;;;;;;;9.20;4.95;;;;;;;2.50;81.39;101665.13;5028073;28;20029;-21
2022/02/08 04:59:13;;;;;;;8.77;5.00;;;;;;;2.58;81.51;101662.84;5028648;28;20091;-21
2022/02/08 05:02:00;;;;;;;10.70;4.15;;;;;;;2.60;81.23;101668.13;5028440;28;20033;-21
2022/02/08 05:44:55;;;;;;;8.55;4.60;;;;;;;2.82;81.78;101625.56;5032212;28;20018;-21
2022/02/08 05:47:21;;;;;;;9.88;4.00;;;;;;;2.84;81.52;101638.63;5030703;28;20275;-21
2022/02/08 05:50:06;;;;;;;8.35;4.35;;;;;;;2.82;81.21;101629.06;5030326;28;20909;-21
2022/02/08 05:54:57;;;;;;;7.72;3.50;;;;;;;2.85;81.43;101604.81;5032460;28;20025;-23
2022/02/08 05:57:23;;;;;;;5.45;3.72;;;;;;;2.88;81.54;101636.22;5031254;28;20025;-22
2022/02/08 05:59:50;;;;;;;10.20;4.32;;;;;;;2.89;81.36;101639.69;5030501;28;20504;-21
2022/02/08 06:02:18;;;;;;;13.57;3.92;;;;;;;2.88;81.40;101644.03;5030749;28;20029;-21
2022/02/08 06:04:44;;;;;;;5.53;3.08;;;;;;;2.90;81.29;101644.97;5030874;28;20017;-21
2022/02/08 06:07:13;;;;;;;10.13;3.72;;;;;;;2.91;81.61;101651.06;5032557;28;20033;-22
2022/02/08 06:09:39;;;;;;;8.13;3.78;;;;;;;2.90;81.58;101655.41;5031932;28;20152;-21
2022/02/08 06:12:05;;;;;;;8.18;3.97;;;;;;;2.92;81.45;101650.25;5031635;28;20104;-22
2022/02/08 06:14:32;;;;;;;6.07;3.55;;;;;;;2.94;81.79;101652.06;5030517;28;20416;-21
2022/02/08 06:16:58;;;;;;;13.82;4.28;;;;;;;2.96;81.88;101657.34;5029637;28;20021;-21
2022/02/08 06:19:24;;;;;;;5.22;3.35;;;;;;;2.97;81.81;101659.16;5032023;28;20272;-22
2022/02/08 06:21:49;;;;;;;6.00;4.30;;;;;;;2.97;81.81;101640.00;5030280;28;20032;-21
2022/02/08 06:24:15;;;;;;;9.07;4.05;;;;;;;2.99;82.18;101638.31;5013315;28;20084;-21
2022/02/08 06:26:40;;;;;;;7.15;3.90;;;;;;;3.01;81.72;101632.38;5027678;28;20079;-21
2022/02/08 06:29:14;;;;;;;8.95;3.47;;;;;;;3.01;81.84;101631.47;5031213;28;20470;-21
2022/02/08 06:31:41;;;;;;;7.18;4.28;;;;;;;3.03;81.58;101632.44;5030120;28;20033;-21
2022/02/08 06:34:07;;;;;;;6.05;3.67;;;;;;;3.04;81.47;101628.97;5031735;28;20049;-21
2022/02/08 06:36:32;;;;;;;10.23;3.78;;;;;;;3.02;81.89;101617.59;5030988;28;20470;-22
2022/02/08 06:38:58;;;;;;;5.25;3.72;;;;;;;3.05;81.83;101618.63;5031552;28;20488;-22
2022/02/08 06:41:24;;;;;;;6.07;3.78;;;;;;;3.06;81.68;101616.88;5034601;28;20066;-25
2022/02/08 06:43:49;;;;;;;9.52;4.30;;;;;;;3.07;81.50;101616.06;5031236;28;20064;-22
2022/02/08 06:46:15;;;;;;;8.43;3.90;;;;;;;3.08;81.71;101613.47;5031017;28;20040;-21
2022/02/08 06:48:40;;;;;;;10.30;4.45;;;;;;;3.08;81.89;101618.69;5033576;28;20038;-21
2022/02/08 06:51:06;;;;;;;12.60;4.28;;;;;;;3.11;82.00;101612.75;5030456;28;20059;-21
2022/02/08 06:53:31;;;;;;;8.85;3.95;;;;;;;3.11;81.96;101611.84;5031078;28;20419;-21
2022/02/08 06:55:59;;;;;;;10.68;4.15;;;;;;;3.13;81.60;101615.41;5031312;28;20107;-21
2022/02/08 06:58:30;;;;;;;10.65;4.43;;;;;;;3.14;82.16;101618.03;5028711;28;20444;-21
2022/02/08 07:01:02;;;;;;;6.22;3.38;;;;;;;3.12;82.21;101614.50;5030199;28;20021;-22
2022/02/08 07:03:27;;;;;;;;;;;;;;;3.16;82.53;101626.81;5031477;28;20030;-21
2022/02/08 07:05:52;;;;;;;7.18;3.70;;;;;;;3.17;82.55;101623.38;5030670;28;19963;-21
2022/02/08 07:08:18;;;;;;;7.28;3.63;;;;;;;3.14;82.34;101633.69;5030725;28;20072;-23
2022/02/08 07:10:45;;;;;;;10.45;3.58;;;;;;;3.18;82.28;101635.59;5028343;28;20045;-21
2022/02/08 07:13:10;;;;;;;9.02;3.92;;;;;;;3.21;82.34;101638.28;5031284;28;20112;-23
2022/02/08 07:15:38;;;;;;;7.53;3.42;;;;;;;3.16;82.40;101634.63;5030481;28;20493;-21
2022/02/08 07:18:03;;;;;;;6.68;3.05;;;;;;;3.23;82.53;101638.34;5028498;28;20422;-22
2022/02/08 07:20:32;;;;;;;7.22;3.47;;;;;;;3.25;82.25;101630.59;5028814;28;20037;-23
2022/02/08 07:22:57;;;;;;;9.25;3.22;;;;;;;3.26;82.26;101633.25;5027824;28;20021;-21
2022/02/08 07:25:23;;;;;;;5.93;3.10;;;;;;;3.27;82.11;101636.75;5030137;28;20052;-22
2022/02/08 07:27:48;;;;;;;9.95;3.50;;;;;;;3.29;82.32;101632.47;5033676;28;20092;-21
2022/02/08 07:30:14;;;;;;;11.23;3.97;;;;;;;3.30;82.29;101647.31;5030226;28;20025;-21
2022/02/08 07:32:41;;;;;;;7.88;4.05;;;;;;;3.31;82.33;101636.03;5030055;28;20026;-21
2022/02/08 07:35:23;;;;;;;9.88;3.95;;;;;;;3.31;82.54;101636.03;5030518;28;20099;-22
2022/02/08 07:37:59;;;;;;;4.88;2.67;;;;;;;3.36;82.69;101642.31;5030275;28;20025;-21
2022/02/08 07:42:54;;;;;;;8.95;4.38;;;;;;;3.39;82.55;101642.41;5027103;28;21187;-22
2022/02/08 07:45:20;;;;;;;5.28;2.90;;;;;;;3.38;83.08;101645.88;5028559;28;20020;-23
2022/02/08 07:47:45;;;;;;;8.38;3.03;;;;;;;3.42;82.94;101645.16;5029790;28;20025;-21
2022/02/08 07:50:13;;;;;;;7.95;2.97;;;;;;;3.45;83.16;101657.41;5029801;28;20045;-21
2022/02/08 07:52:38;;;;;;;8.95;4.53;;;;;;;3.46;83.20;101644.41;5029268;28;20429;-21
2022/02/08 07:55:05;;;;;;;9.82;3.72;;;;;;;3.48;83.08;101636.66;5028894;28;20021;-22
2022/02/08 07:57:30;;;;;;;9.23;3.30;;;;;;;3.50;83.33;101647.16;5029853;28;20033;-22
2022/02/08 07:59:56;;;;;;;12.02;3.88;;;;;;;3.53;83.09;101642.03;5028639;28;20096;-21
2022/02/08 08:02:21;;;;;;;7.80;3.53;;;;;;;3.53;83.57;101629.00;5029244;28;20448;-21
2022/02/08 08:04:47;;;;;;;8.80;3.30;;;;;;;3.55;83.26;101629.91;5029466;28;20362;-21
2022/02/08 08:07:12;;;;;;;8.88;3.33;;;;;;;3.59;83.39;101640.53;5029407;28;20052;-21
2022/02/08 08:09:40;;;;;;;7.53;3.78;;;;;;;3.60;83.52;101628.34;5029898;28;20021;-22
2022/02/08 08:12:10;;;;;;;7.05;3.10;;;;;;;3.63;83.14;101631.06;5027470;28;20493;-21
2022/02/08 08:14:35;;;;;;;8.73;3.40;;;;;;;3.65;83.46;101644.19;5029168;28;20609;-21
2022/02/08 08:17:25;;;;;;;7.20;3.15;;;;;;;3.67;83.23;101635.56;5028900;28;20029;-22
2022/02/08 08:19:47;;;;;;;5.95;3.25;;;;;;;3.70;84.07;101640.91;5028752;28;20124;-21
2022/02/08 08:22:13;;;;;;;8.45;4.30;;;;;;;3.73;83.49;101642.72;5028021;28;20083;-21
2022/02/08 08:24:38;;;;;;;8.02;4.55;;;;;;;3.74;83.79;101626.25;5029486;28;21205;-21
2022/02/08 08:27:05;;;;;;;6.45;3.70;;;;;;;3.76;84.37;101628.91;5029598;28;20057;-21
2022/02/08 08:29:30;;;;;;;4.18;3.08;;;;;;;3.78;84.34;101632.44;5030359;28;20021;-21
2022/02/08 08:31:56;;;;;;;5.18;2.83;;;;;;;3.82;83.83;101637.84;5027323;28;20397;-22
2022/02/08 08:34:22;;;;;;;7.88;4.00;;;;;;;3.85;84.03;101622.28;5029219;28;20026;-22
2022/02/08 08:36:50;;;;;;;5.28;3.17;;;;;;;3.88;84.23;101620.59;5029312;28;20064;-22
2022/02/08 08:39:19;;;;;;;10.20;3.47;;;;;;;3.91;84.25;101608.56;5029212;28;20025;-23
2022/02/08 08:42:04;;;;;;;10.82;3.97;;;;;;;3.93;84.35;101612.09;5029516;28;20033;-21
2022/02/08 08:50:10;;;;;;;7.53;4.40;;;;;;;4.01;84.80;101612.34;5028922;28;20035;-22
2022/02/08 08:52:41;;;;;;;10.02;4.30;;;;;;;4.02;84.47;101611.50;5028473;28;20032;-21
2022/02/08 08:55:07;;;;;;;5.97;3.28;;;;;;;4.06;85.38;101615.09;5029016;28;20026;-23
2022/02/08 08:57:32;;;;;;;5.25;3.20;;;;;;;4.08;84.81;101616.06;5028626;28;20589;-21
2022/02/08 08:59:58;;;;;;;4.22;3.20;;;;;;;4.09;84.69;101634.38;5028467;28;20045;-23
2022/02/08 09:02:23;;;;;;;6.97;3.63;;;;;;;4.13;85.12;101643.19;5027020;28;20029;-21
2022/02/08 09:04:51;;;;;;;6.70;3.65;;;;;;;4.15;85.03;101630.19;5028565;28;20083;-21
2022/02/08 09:07:17;;;;;;;8.30;3.53;;;;;;;4.18;84.63;101644.25;5027426;28;20029;-21
2022/02/08 09:09:45;;;;;;;9.50;3.65;;;;;;;4.20;84.43;101647.78;5028623;28;20056;-21
2022/02/08 09:12:26;;;;;;;6.45;3.38;;;;;;;4.22;84.68;101640.00;5027621;28;20032;-21
2022/02/08 09:15:19;;;;;;;6.80;3.42;;;;;;;4.22;84.90;101638.28;5025959;28;20108;-24
2022/02/08 09:21:21;;;;;;;7.10;3.42;;;;;;;4.28;84.66;101634.09;5027380;28;20124;-25
2022/02/08 09:31:04;;;;;;;5.13;3.38;;;;;;;4.41;85.06;101640.59;5028304;28;20057;-22
2022/02/08 09:33:30;;;;;;;5.82;4.10;;;;;;;4.42;84.61;101631.91;5028496;28;20026;-23
2022/02/08 09:35:56;;;;;;;10.13;4.07;;;;;;;4.45;84.54;101648.59;5028247;28;20237;-22
2022/02/08 09:38:24;;;;;;;4.15;3.28;;;;;;;4.48;85.19;101633.03;5028882;28;20087;-22
2022/02/08 09:40:50;;;;;;;3.35;3.08;;;;;;;4.52;84.95;101635.69;5028504;28;20473;-21
2022/02/08 09:43:18;;;;;;;6.47;3.78;;;;;;;4.54;84.91;101621.88;5028104;28;20021;-21
2022/02/08 09:45:45;;;;;;;5.38;3.22;;;;;;;4.60;85.00;101621.16;5028243;28;20032;-21
2022/02/08 09:48:18;;;;;;;4.32;2.97;;;;;;;4.61;84.94;101618.59;5028523;28;20048;-21
2022/02/08 09:50:46;;;;;;;5.72;3.13;;;;;;;4.65;85.32;101619.59;5027904;28;20436;-21
2022/02/08 09:53:18;;;;;;;4.57;2.58;;;;;;;4.70;86.02;101633.66;5028158;28;20079;-21
2022/02/08 09:55:44;;;;;;;9.55;3.83;;;;;;;4.74;85.15;101625.06;5028406;28;20017;-21
2022/02/08 09:58:10;;;;;;;6.68;3.67;;;;;;;4.79;85.66;101611.25;5026565;28;20071;-21
2022/02/08 10:00:37;;;;;;;7.75;4.07;;;;;;;4.83;85.62;101634.94;5025375;28;20510;-21
2022/02/08 10:03:09;;;;;;;9.68;3.75;;;;;;;4.87;85.88;101621.09;5027033;28;20105;-21
2022/02/08 10:05:52;;;;;;;4.47;3.10;;;;;;;4.93;85.80;101625.63;5028397;28;20568;-21
2022/02/08 10:08:18;;;;;;;6.32;3.20;;;;;;;4.97;86.27;101629.25;5028283;28;20029;-21
2022/02/08 10:10:44;;;;;;;6.38;3.35;;;;;;;5.03;85.81;101623.31;5028138;28;20025;-21
2022/02/08 10:13:31;;;;;;;6.25;3.35;;;;;;;5.08;85.94;101634.78;5027613;28;20401;-21
2022/02/08 10:19:14;;;;;;;5.82;2.95;;;;;;;5.20;85.49;101626.41;5028316;28;20503;-23
2022/02/08 10:21:46;;;;;;;5.05;2.88;;;;;;;5.28;86.41;101631.84;5026747;28;20311;-21
2022/02/08 10:24:14;;;;;;;9.85;3.47;;;;;;;5.35;86.10;101629.44;5030882;28;20025;-22
2022/02/08 10:26:54;;;;;;;7.68;3.40;;;;;;;5.41;85.98;101631.34;5031205;28;20037;-22
2022/02/08 10:40:06;;;;;;;5.03;3.47;;;;;;;5.68;84.16;101630.31;5030434;28;20527;-21
2022/02/08 10:42:32;;;;;;;6.47;2.97;;;;;;;5.74;84.78;101637.47;5030476;28;20052;-21
2022/02/08 10:44:59;;;;;;;7.13;2.95;;;;;;;5.77;84.45;101629.69;5031111;28;20392;-21
2022/02/08 10:47:38;;;;;;;4.93;3.35;;;;;;;5.84;84.05;101638.59;5031500;28;20037;-21
2022/02/08 10:50:05;;;;;;;5.63;3.13;;;;;;;5.89;83.99;101639.56;5031589;28;20024;-21
2022/02/08 10:52:31;;;;;;;5.60;3.17;;;;;;;5.92;84.59;101631.81;5030952;28;20025;-21
2022/02/08 10:55:03;;;;;;;5.35;3.75;;;;;;;5.97;84.37;101624.94;5030410;28;20055;-21
2022/02/08 10:57:40;;;;;;;5.40;3.40;;;;;;;6.03;84.37;101627.75;5029126;28;20024;-21
2022/02/08 11:00:06;;;;;;;7.85;4.30;;;;;;;6.09;84.17;101623.50;5030567;28;20060;-23
2022/02/08 11:02:43;;;;;;;5.25;3.17;;;;;;;6.15;84.55;101623.69;5029985;28;20033;-23
2022/02/08 11:08:34;;;;;;;8.93;3.80;;;;;;;6.26;83.90;101616.97;5008448;28;20517;-21
2022/02/08 11:11:27;;;;;;;6.05;4.13;;;;;;;6.36;84.53;101619.78;5028544;28;20069;-22
2022/02/08 11:16:42;;;;;;;4.70;3.22;;;;;;;6.49;84.52;101608.75;5030253;28;20029;-21
2022/02/08 11:19:25;;;;;;;8.95;3.72;;;;;;;6.53;83.74;101615.84;5029512;28;20381;-21
2022/02/08 11:22:12;;;;;;;8.18;4.20;;;;;;;6.59;84.20;101620.34;5029122;28;20024;-22
2022/02/08 11:24:50;;;;;;;8.52;3.90;;;;;;;6.66;84.07;101623.97;5030287;28;20025;-21
2022/02/08 11:27:19;;;;;;;5.47;3.55;;;;;;;6.68;83.76;101623.16;5029901;28;20027;-21
2022/02/08 11:30:04;;;;;;;7.45;3.60;;;;;;;6.75;83.60;101625.91;5029270;28;20029;-21
2022/02/08 11:33:32;;;;;;;6.18;3.53;;;;;;;6.79;83.48;101626.03;5030377;28;20068;-21
2022/02/08 11:57:36;;;;;;;8.20;3.65;;;;;;;7.04;82.89;101610.78;5027996;28;20381;-22
2022/02/08 11:59:56;;;;;;;8.55;3.53;;;;;;;7.07;82.63;101602.09;5028291;28;20388;-21
2022/02/08 12:05:12;;;;;;;4.07;3.05;;;;;;;7.12;82.62;101597.84;5031071;28;20018;-21
2022/02/08 12:07:46;;;;;;;6.85;3.30;;;;;;;7.17;83.05;101603.19;5029678;28;20036;-26
2022/02/08 12:10:32;;;;;;;4.07;3.22;;;;;;;7.22;82.90;101598.91;5030184;28;20025;-21
2022/02/08 12:13:21;;;;;;;6.32;3.30;;;;;;;7.27;83.07;101606.88;5027006;28;20022;-21
2022/02/08 12:35:41;;;;;;;3.72;2.92;;;;;;;7.55;82.35;101584.66;5028209;28;20026;-21
2022/02/08 12:54:28;;;;;;;7.13;4.07;;;;;;;7.74;82.31;101589.34;5026438;28;20270;-23
2022/02/08 12:57:30;;;;;;;6.15;3.17;;;;;;;7.73;81.89;101596.34;5025558;28;20017;-21
2022/02/08 13:02:48;;;;;;;3.58;2.75;;;;;;;7.80;82.54;101585.09;5027873;28;20032;-21
2022/02/08 14:02:09;;;;;;;3.40;2.38;;;;;;;8.15;81.77;101564.63;5027527;28;20122;-22
2022/02/08 14:07:11;;;;;;;;;;;;;;;8.20;81.72;101565.56;5030718;28;20026;-21
2022/02/08 14:09:55;;;;;;;4.35;2.42;;;;;;;8.18;81.43;101570.81;5030690;28;19917;-21
2022/02/08 14:15:30;;;;;;;4.45;2.30;;;;;;;8.18;81.42;101570.81;5031491;28;20083;-21
2022/02/08 14:30:47;;;;;;;2.85;2.58;;;;;;;8.19;81.36;101571.69;5029678;28;20407;-21
2022/02/08 15:10:19;;;;;;;5.60;2.95;;;;;;;8.25;81.84;101598.06;5026029;28;20037;-23
2022/02/08 15:12:52;;;;;;;3.67;3.05;;;;;;;8.24;81.42;101596.31;5030448;28;20465;-21
2022/02/08 15:18:01;;;;;;;5.40;2.80;;;;;;;8.25;81.55;101574.41;5027818;28;20113;-22
2022/02/08 15:20:28;;;;;;;6.38;3.78;;;;;;;8.20;81.31;101592.75;5030806;28;20123;-22
2022/02/08 15:22:57;;;;;;;5.43;4.05;;;;;;;8.25;81.59;101574.41;5029983;28;20025;-21
2022/02/08 15:25:23;;;;;;;7.68;4.30;;;;;;;8.25;81.66;101579.69;5024183;28;20091;-21
2022/02/08 15:27:49;;;;;;;7.35;4.80;;;;;;;8.24;81.57;101580.53;5030158;28;20017;-22
2022/02/08 15:30:15;;;;;;;4.20;3.60;;;;;;;8.25;81.44;101581.41;5027043;28;20029;-21
2022/02/08 15:32:40;;;;;;;3.85;3.25;;;;;;;8.25;81.49;101581.41;5030205;28;20034;-21
2022/02/08 15:35:07;;;;;;;3.92;2.75;;;;;;;8.26;81.77;101594.56;5026786;28;20048;-22
2022/02/08 15:37:32;;;;;;;5.32;3.20;;;;;;;8.26;81.47;101594.56;5028601;28;20028;-22
2022/02/08 15:39:59;;;;;;;3.78;3.30;;;;;;;8.25;81.03;101592.81;5027601;28;20029;-23
2022/02/08 15:42:31;;;;;;;4.85;3.53;;;;;;;8.24;81.19;101595.41;5028946;28;20042;-21
2022/02/08 15:45:03;;;;;;;5.55;3.20;;;;;;;8.26;81.16;101598.94;5028438;28;20021;-22
2022/02/08 15:47:28;;;;;;;5.43;3.63;;;;;;;8.25;81.34;101590.19;5022210;28;20021;-22
2022/02/08 15:50:00;;;;;;;3.70;3.17;;;;;;;8.23;81.20;101584.00;5026398;28;20017;-21
2022/02/08 15:58:23;;;;;;;6.18;3.53;;;;;;;8.26;81.47;101584.06;5023246;28;20115;-21
2022/02/08 16:08:34;;;;;;;3.90;2.95;;;;;;;8.24;80.89;101596.31;5027870;28;20113;-21
2022/02/08 16:11:20;;;;;;;3.83;3.08;;;;;;;8.28;81.27;101598.13;5027447;28;20080;-21
2022/02/08 16:16:23;;;;;;;5.43;3.80;;;;;;;8.27;81.13;101617.38;5024891;28;20048;-21
2022/02/08 16:19:06;;;;;;;3.88;2.90;;;;;;;8.28;80.96;101619.16;5027559;28;20036;-21
2022/02/08 16:24:46;;;;;;;3.70;2.97;;;;;;;8.26;81.06;101626.13;5016051;28;20037;-22
2022/02/08 16:57:16;;;;;;;6.13;3.95;;;;;;;8.06;81.22;101633.66;5026473;28;20029;-24
2022/02/08 16:59:28;;;;;;;4.88;4.22;;;;;;;8.07;80.95;101635.47;5026741;28;20045;-22
2022/02/08 17:01:57;;;;;;;4.93;4.25;;;;;;;8.06;81.26;101641.56;5022876;28;20080;-21
2022/02/08 17:04:23;;;;;;;7.50;4.70;;;;;;;8.04;81.06;101636.25;5026137;28;20021;-21
2022/02/08 17:06:49;;;;;;;7.65;4.90;;;;;;;8.01;80.96;101633.63;5027649;28;20028;-23
2022/02/08 17:09:20;;;;;;;5.95;5.00;;;;;;;8.01;81.18;101628.38;5029241;28;20389;-23
2022/02/08 17:11:52;;;;;;;9.02;4.82;;;;;;;7.98;81.15;101635.28;5027754;28;20071;-25
2022/02/08 17:36:52;;;;;;;7.32;5.53;;;;;;;7.88;81.24;101657.88;5031079;28;20044;-22
2022/02/08 17:46:32;;;;;;;8.30;5.25;;;;;;;7.83;81.30;101665.66;5021971;28;20503;-21
2022/02/08 17:48:58;;;;;;;8.02;5.57;;;;;;;7.82;81.19;101664.81;5029634;28;20041;-21
2022/02/08 17:51:23;;;;;;;9.15;5.55;;;;;;;7.81;81.57;101670.91;5026873;28;20485;-21
2022/02/08 17:53:49;;;;;;;7.90;5.47;;;;;;;7.81;81.40;101673.53;5026562;28;20083;-22
2022/02/08 17:56:15;;;;;;;7.45;4.93;;;;;;;7.80;81.12;101669.13;5029560;28;20041;-21
2022/02/08 17:58:41;;;;;;;7.68;5.82;;;;;;;7.76;81.33;101669.94;5027621;28;20089;-21
2022/02/08 18:01:06;;;;;;;7.78;4.88;;;;;;;7.78;81.22;101662.97;5026802;28;20742;-21
2022/02/08 18:03:32;;;;;;;6.80;5.25;;;;;;;7.76;81.62;101664.69;5025827;28;20031;-21
2022/02/08 18:05:57;;;;;;;5.25;4.75;;;;;;;7.76;81.56;101661.16;5024852;28;20025;-21
2022/02/08 18:08:24;;;;;;;8.77;5.80;;;;;;;7.72;81.35;101662.84;5025611;28;20052;-21
2022/02/08 18:10:55;;;;;;;6.80;4.55;;;;;;;7.73;81.68;101662.00;5027578;28;20120;-21
2022/02/08 18:13:22;;;;;;;5.68;4.80;;;;;;;7.76;81.61;101671.66;5027169;28;20029;-25
2022/02/08 18:15:47;;;;;;;6.13;5.25;;;;;;;7.74;81.69;101676.88;5028973;28;20040;-21
2022/02/08 18:18:25;;;;;;;6.65;5.85;;;;;;;7.73;81.64;101679.50;5027639;28;20393;-22
2022/02/08 18:21:04;;;;;;;9.15;4.68;;;;;;;7.71;81.42;101682.09;5027196;28;20032;-21
2022/02/08 18:23:49;;;;;;;6.72;5.53;;;;;;;7.74;81.54;101690.00;5010819;28;20473;-21
2022/02/08 19:05:16;;;;;;;5.97;4.85;;;;;;;7.67;81.76;101709.16;5027252;28;20459;-21